Time;durP1;ratioP1;P1;durP2;ratioP2;P2;SDS_P1;SDS_P2;PMS_P1;PMS_P2;Temp;Humidity;BMP_temperature;BMP_pressure;BME280_temperature;BME280_humidity;BME280_pressure;Samples;Min_cycle;Max_cycle;Signal;HPM_P1;HPM_P2
2023/05/26 00:00:03;;;;;;;19.13;4.95;;;;;;;12.27;65.51;102797.38;5034980;28;20505;-63
2023/05/26 00:02:29;;;;;;;22.67;5.28;;;;;;;12.26;65.46;102790.25;5034938;28;20060;-63
2023/05/26 00:04:58;;;;;;;20.77;4.85;;;;;;;12.25;65.73;102784.06;5034807;28;20544;-63
2023/05/26 00:07:24;;;;;;;19.98;4.90;;;;;;;12.23;65.62;102798.09;5034818;28;20057;-63
2023/05/26 00:09:49;;;;;;;19.00;5.18;;;;;;;12.19;66.00;102796.19;5034806;28;20060;-63
2023/05/26 00:12:15;;;;;;;21.95;4.82;;;;;;;12.17;66.00;102793.50;5034726;28;20505;-63
2023/05/26 00:14:40;;;;;;;20.65;5.28;;;;;;;12.15;66.21;102797.81;5016840;28;20471;-63
2023/05/26 00:17:07;;;;;;;24.65;5.13;;;;;;;12.12;65.98;102802.09;5034846;28;20076;-63
2023/05/26 00:19:35;;;;;;;21.25;4.82;;;;;;;12.08;66.17;102803.78;5034086;28;20042;-63
2023/05/26 00:22:01;;;;;;;20.45;4.70;;;;;;;12.03;66.24;102800.97;5017237;28;20025;-63
2023/05/26 00:24:26;;;;;;;28.92;5.05;;;;;;;12.03;66.60;102807.97;5034315;28;20030;-63
2023/05/26 00:26:53;;;;;;;19.05;5.13;;;;;;;12.04;66.44;102809.81;5034718;28;20029;-63
2023/05/26 00:29:19;;;;;;;27.70;5.47;;;;;;;11.98;66.65;102813.13;5034407;28;20033;-63
2023/05/26 00:31:44;;;;;;;18.92;4.57;;;;;;;11.94;66.69;102815.59;5034398;28;20375;-63
2023/05/26 00:34:10;;;;;;;24.92;4.85;;;;;;;11.92;66.81;102806.72;5034304;28;20036;-63
2023/05/26 00:36:35;;;;;;;16.30;4.45;;;;;;;11.87;67.35;102814.50;5034253;28;20486;-63
2023/05/26 00:39:00;;;;;;;24.33;4.80;;;;;;;11.81;67.41;102818.59;5034104;28;20038;-63
2023/05/26 00:41:26;;;;;;;28.05;5.10;;;;;;;11.82;67.69;102816.03;5034041;28;20360;-63
2023/05/26 00:43:52;;;;;;;27.25;5.05;;;;;;;11.76;67.36;102814.03;5034165;28;20511;-62
2023/05/26 00:46:17;;;;;;;22.10;4.80;;;;;;;11.74;67.37;102809.56;5034201;28;20026;-63
2023/05/26 00:48:43;;;;;;;22.55;4.53;;;;;;;11.64;68.03;102804.72;5033945;28;20030;-63
2023/05/26 00:51:11;;;;;;;24.63;5.43;;;;;;;11.49;69.19;102813.00;5016113;28;20437;-63
2023/05/26 00:53:41;;;;;;;24.67;5.10;;;;;;;11.39;68.99;102806.47;5033779;28;20032;-63
2023/05/26 00:56:09;;;;;;;25.30;4.95;;;;;;;11.38;69.65;102811.69;5033829;28;20064;-63
2023/05/26 00:58:34;;;;;;;28.48;5.10;;;;;;;11.36;69.13;102813.38;5033543;28;20062;-63
2023/05/26 01:01:00;;;;;;;24.23;5.15;;;;;;;11.34;69.57;102810.66;5033892;28;20022;-63
2023/05/26 01:03:27;;;;;;;28.10;4.95;;;;;;;11.31;69.96;102815.84;5033877;28;20025;-63
2023/05/26 01:05:54;;;;;;;29.80;4.80;;;;;;;11.25;69.65;102811.19;5034054;28;20048;-63
2023/05/26 01:08:19;;;;;;;24.08;5.30;;;;;;;11.24;69.71;102809.38;5033961;28;20072;-63
2023/05/26 01:10:45;;;;;;;23.35;4.80;;;;;;;11.21;70.46;102814.56;5033610;28;20033;-63
2023/05/26 01:13:20;;;;;;;23.80;5.30;;;;;;;11.13;70.23;102817.75;5033646;28;20450;-63
2023/05/26 01:15:55;;;;;;;20.67;4.75;;;;;;;11.11;71.09;102817.69;5033612;28;20112;-63
2023/05/26 01:18:28;;;;;;;24.83;5.35;;;;;;;11.06;71.02;102828.94;5033594;28;20036;-63
2023/05/26 01:21:05;;;;;;;24.15;5.10;;;;;;;11.06;71.00;102819.25;5033829;28;20030;-64
2023/05/26 01:23:48;;;;;;;21.65;4.35;;;;;;;11.02;70.79;102827.91;5033388;28;20029;-63
2023/05/26 01:26:25;;;;;;;19.60;4.70;;;;;;;11.00;71.31;102821.63;5033426;28;20134;-63
2023/05/26 01:28:55;;;;;;;25.77;4.75;;;;;;;10.98;70.76;102824.22;5033482;28;20138;-63
2023/05/26 01:31:20;;;;;;;21.67;4.38;;;;;;;10.98;71.39;102825.97;5016022;28;20061;-63
2023/05/26 01:33:46;;;;;;;21.98;5.10;;;;;;;10.94;70.97;102832.88;5033479;28;20067;-63
2023/05/26 01:36:11;;;;;;;21.25;5.07;;;;;;;10.95;71.26;102829.38;5033450;28;20071;-63
2023/05/26 01:38:39;;;;;;;21.08;4.60;;;;;;;10.95;71.21;102823.19;5033093;28;20041;-63
2023/05/26 01:41:39;;;;;;;21.50;4.75;;;;;;;10.90;71.28;102830.94;5032837;28;20498;-63
2023/05/26 01:44:27;;;;;;;29.13;5.00;;;;;;;10.88;70.71;102830.00;5001496;28;20049;-63
2023/05/26 01:46:53;;;;;;;26.38;4.72;;;;;;;10.80;71.06;102831.41;5015223;28;20439;-63
2023/05/26 01:49:28;;;;;;;22.58;4.72;;;;;;;10.83;71.33;102828.88;5032969;28;20053;-63
2023/05/26 01:52:00;;;;;;;25.25;4.95;;;;;;;10.78;71.67;102828.69;5015368;28;20308;-63
2023/05/26 01:54:27;;;;;;;26.10;5.35;;;;;;;10.78;71.44;102822.50;5015301;28;20030;-64
2023/05/26 01:56:54;;;;;;;27.02;5.10;;;;;;;10.82;71.25;102823.53;5032732;28;20049;-63
2023/05/26 01:59:23;;;;;;;28.52;5.05;;;;;;;10.74;71.81;102829.38;5015089;28;20022;-63
2023/05/26 02:01:49;;;;;;;23.20;4.57;;;;;;;10.72;71.41;102836.38;5032913;28;20029;-63
2023/05/26 02:04:15;;;;;;;20.98;4.85;;;;;;;10.72;71.68;102838.13;5032804;28;20033;-63
2023/05/26 02:06:40;;;;;;;23.63;4.90;;;;;;;10.66;71.66;102838.78;5032995;28;20036;-63
2023/05/26 02:09:06;;;;;;;23.42;4.50;;;;;;;10.70;71.12;102838.03;5032700;28;20100;-63
2023/05/26 02:11:32;;;;;;;26.95;5.03;;;;;;;10.66;71.31;102830.84;5032889;28;20029;-63
2023/05/26 02:14:00;;;;;;;24.85;4.43;;;;;;;10.62;72.47;102838.53;5032832;28;20017;-63
2023/05/26 02:16:27;;;;;;;27.73;4.82;;;;;;;10.57;71.79;102838.34;5032726;28;20041;-63
2023/05/26 02:18:54;;;;;;;29.33;5.30;;;;;;;10.59;72.02;102843.72;5032794;28;20439;-63
2023/05/26 02:21:19;;;;;;;21.73;5.00;;;;;;;10.57;72.54;102841.00;5032568;28;20495;-63
2023/05/26 02:23:45;;;;;;;26.95;5.22;;;;;;;10.59;71.79;102849.00;5032526;28;20033;-63
2023/05/26 02:26:11;;;;;;;26.60;4.82;;;;;;;10.48;71.73;102849.44;5032873;28;20050;-63
2023/05/26 02:28:38;;;;;;;21.80;4.82;;;;;;;10.48;71.83;102845.91;5032643;28;20048;-63
2023/05/26 02:31:04;;;;;;;25.20;5.00;;;;;;;10.50;72.13;102853.06;5032746;28;20029;-62
2023/05/26 02:33:29;;;;;;;20.98;4.53;;;;;;;10.46;72.04;102848.47;5032828;28;20104;-63
2023/05/26 02:35:55;;;;;;;25.98;4.45;;;;;;;10.40;72.38;102842.00;5032430;28;20032;-63
2023/05/26 02:38:20;;;;;;;25.88;4.82;;;;;;;10.42;72.23;102851.81;5032513;28;20029;-63
2023/05/26 02:40:46;;;;;;;28.38;5.18;;;;;;;10.37;72.04;102848.09;5032589;28;20029;-63
2023/05/26 02:43:11;;;;;;;23.25;4.65;;;;;;;10.35;72.77;102855.03;5033112;28;20029;-63
2023/05/26 02:45:36;;;;;;;24.55;4.88;;;;;;;10.32;72.36;102848.69;5036213;28;20049;-62
2023/05/26 02:48:02;;;;;;;27.52;5.30;;;;;;;10.31;72.25;102846.91;5036200;28;20026;-63
2023/05/26 02:50:27;;;;;;;23.90;4.88;;;;;;;10.30;72.42;102840.72;5036244;28;20032;-63
2023/05/26 02:52:53;;;;;;;22.20;4.78;;;;;;;10.24;72.43;102843.06;5018587;28;20029;-63
2023/05/26 02:55:18;;;;;;;24.13;4.82;;;;;;;10.20;72.70;102849.06;5036074;28;20088;-63
2023/05/26 02:57:44;;;;;;;28.65;5.07;;;;;;;10.23;72.55;102847.41;5035662;28;20050;-63
2023/05/26 03:00:11;;;;;;;24.15;4.90;;;;;;;10.17;72.74;102841.88;5036124;28;20079;-63
2023/05/26 03:02:37;;;;;;;24.83;4.40;;;;;;;10.11;73.18;102840.72;5036101;28;20030;-63
2023/05/26 03:05:04;;;;;;;27.75;4.85;;;;;;;10.04;73.33;102847.44;5018451;28;20032;-63
2023/05/26 03:07:29;;;;;;;21.20;4.50;;;;;;;9.97;73.44;102842.72;5035909;28;20029;-63
2023/05/26 03:09:54;;;;;;;23.10;4.72;;;;;;;9.95;73.65;102839.13;5035839;28;20029;-63
2023/05/26 03:12:20;;;;;;;25.55;5.22;;;;;;;9.88;73.84;102844.94;5035665;28;20026;-63
2023/05/26 03:14:45;;;;;;;21.52;4.40;;;;;;;9.86;74.02;102849.28;5036130;28;20029;-63
2023/05/26 03:17:11;;;;;;;26.55;5.03;;;;;;;9.82;74.24;102848.22;5035849;28;20057;-63
2023/05/26 03:19:36;;;;;;;20.15;4.22;;;;;;;9.90;74.20;102845.94;5035747;28;20039;-63
2023/05/26 03:22:02;;;;;;;18.92;4.65;;;;;;;9.88;74.11;102859.03;5035883;28;20033;-63
2023/05/26 03:24:27;;;;;;;21.13;4.93;;;;;;;9.84;74.23;102857.09;5035389;28;20445;-63
2023/05/26 03:26:53;;;;;;;21.90;4.70;;;;;;;9.86;74.61;102850.16;5035564;28;20036;-63
2023/05/26 03:29:18;;;;;;;28.63;4.88;;;;;;;9.81;75.03;102854.34;5035339;28;20029;-63
2023/05/26 03:31:43;;;;;;;26.90;4.95;;;;;;;9.83;75.09;102857.03;5035391;28;20029;-63
2023/05/26 03:34:09;;;;;;;27.10;5.22;;;;;;;9.76;74.75;102856.78;5035629;28;20030;-63
2023/05/26 03:36:38;;;;;;;23.70;4.68;;;;;;;9.74;74.94;102855.78;5035404;28;20028;-63
2023/05/26 03:39:04;;;;;;;25.10;4.55;;;;;;;9.72;74.88;102861.81;5035432;28;20095;-63
2023/05/26 03:41:31;;;;;;;20.65;4.93;;;;;;;9.67;75.21;102865.97;5035072;28;20030;-63
2023/05/26 03:43:57;;;;;;;30.90;4.80;;;;;;;9.62;75.73;102867.50;5035182;28;20038;-62
2023/05/26 03:46:22;;;;;;;24.17;4.32;;;;;;;9.61;75.94;102866.59;5035048;28;20041;-63
2023/05/26 03:48:48;;;;;;;26.48;5.05;;;;;;;9.61;75.76;102874.53;5035257;28;20041;-63
2023/05/26 03:51:13;;;;;;;22.70;4.60;;;;;;;9.60;76.16;102879.75;5034983;28;20525;-63
2023/05/26 03:53:39;;;;;;;23.70;4.75;;;;;;;9.67;76.39;102882.72;5035050;28;20025;-64
2023/05/26 03:56:05;;;;;;;24.30;4.65;;;;;;;9.69;76.02;102877.53;5017206;28;20033;-63
2023/05/26 03:58:30;;;;;;;26.98;5.40;;;;;;;9.71;75.52;102881.13;5034627;28;20504;-63
2023/05/26 04:00:56;;;;;;;21.98;4.65;;;;;;;9.68;75.64;102878.38;5035250;28;20030;-63
2023/05/26 04:03:21;;;;;;;28.13;5.03;;;;;;;9.67;76.10;102874.78;5034968;28;20071;-63
2023/05/26 04:05:47;;;;;;;30.48;5.15;;;;;;;9.65;76.20;102865.03;5034902;28;20072;-63
2023/05/26 04:08:13;;;;;;;21.27;4.63;;;;;;;9.65;75.88;102872.94;5034827;28;20049;-66
2023/05/26 04:10:38;;;;;;;27.98;4.60;;;;;;;9.67;75.78;102868.63;5034778;28;20026;-63
2023/05/26 04:13:04;;;;;;;24.75;4.93;;;;;;;9.64;75.92;102865.84;5034776;28;20487;-63
2023/05/26 04:15:29;;;;;;;25.60;5.05;;;;;;;9.64;76.43;102877.31;5017120;28;20105;-63
2023/05/26 04:17:55;;;;;;;24.40;4.80;;;;;;;9.67;76.06;102887.09;5034569;28;20483;-63
2023/05/26 04:20:20;;;;;;;25.27;5.18;;;;;;;9.69;76.42;102882.81;5034575;28;20084;-63
2023/05/26 04:22:46;;;;;;;31.50;5.40;;;;;;;9.67;76.42;102882.72;5034403;28;20487;-63
2023/05/26 04:25:12;;;;;;;29.33;5.55;;;;;;;9.71;76.07;102883.78;5016863;28;20025;-63
2023/05/26 04:27:37;;;;;;;29.08;5.63;;;;;;;9.71;76.39;102873.22;5000302;28;20483;-63
2023/05/26 04:30:05;;;;;;;27.85;4.68;;;;;;;9.77;76.31;102882.34;5034335;28;20537;-63
2023/05/26 04:32:33;;;;;;;26.73;5.13;;;;;;;9.75;76.79;102880.44;5034513;28;20025;-63
2023/05/26 04:35:00;;;;;;;26.90;5.10;;;;;;;9.77;76.62;102886.72;5017013;28;20029;-63
2023/05/26 04:37:26;;;;;;;26.95;4.68;;;;;;;9.76;76.42;102893.72;5016622;28;20439;-63
2023/05/26 04:39:51;;;;;;;24.95;4.80;;;;;;;9.82;76.50;102895.75;5034404;28;20442;-63
2023/05/26 04:42:19;;;;;;;24.75;4.85;;;;;;;9.92;76.12;102897.06;5019333;28;20487;-63
2023/05/26 04:44:45;;;;;;;30.95;5.18;;;;;;;9.94;76.38;102901.59;5014252;28;20038;-63
2023/05/26 04:47:11;;;;;;;25.20;4.97;;;;;;;9.96;76.24;102892.00;5014516;28;20048;-63
2023/05/26 04:49:37;;;;;;;20.75;4.38;;;;;;;10.03;75.91;102888.81;5014226;28;20479;-62
2023/05/26 04:52:02;;;;;;;27.95;5.70;;;;;;;10.03;75.78;102896.75;5014575;28;20064;-63
2023/05/26 04:54:28;;;;;;;29.02;5.20;;;;;;;10.06;76.26;102893.31;5014125;28;20533;-63
2023/05/26 04:56:53;;;;;;;27.23;5.30;;;;;;;10.08;75.86;102889.03;5018783;28;20052;-63
2023/05/26 04:59:21;;;;;;;26.83;5.43;;;;;;;10.09;76.25;102903.13;5033868;28;20044;-62
2023/05/26 05:01:47;;;;;;;26.17;5.32;;;;;;;10.15;75.68;102903.41;5034145;28;20034;-63
2023/05/26 05:04:13;;;;;;;24.42;4.90;;;;;;;10.16;75.83;102903.50;5016535;28;20029;-63
2023/05/26 05:06:38;;;;;;;24.05;5.03;;;;;;;10.27;75.66;102909.28;5015631;28;20482;-63
2023/05/26 05:09:03;;;;;;;26.20;5.00;;;;;;;10.40;75.70;102905.44;5033849;28;20037;-63
2023/05/26 05:11:29;;;;;;;24.05;4.63;;;;;;;10.45;75.54;102907.47;5016056;28;20035;-63
2023/05/26 05:13:55;;;;;;;25.35;5.43;;;;;;;10.59;74.78;102907.19;5033724;28;20021;-63
2023/05/26 05:16:21;;;;;;;22.67;5.30;;;;;;;10.70;74.03;102911.16;5033678;28;20072;-63
2023/05/26 05:18:46;;;;;;;27.40;5.68;;;;;;;10.73;73.43;102908.66;5033593;28;20487;-63
2023/05/26 05:21:12;;;;;;;33.03;5.53;;;;;;;10.78;73.50;102909.75;5033563;28;20109;-63
2023/05/26 05:23:37;;;;;;;26.45;4.72;;;;;;;10.90;73.50;102902.34;5033490;28;20099;-63
2023/05/26 05:26:03;;;;;;;27.05;4.88;;;;;;;10.91;72.45;102909.44;5033582;28;20030;-62
2023/05/26 05:28:29;;;;;;;27.92;5.85;;;;;;;10.96;72.15;102913.22;5015604;28;20514;-63
2023/05/26 05:30:55;;;;;;;24.65;5.07;;;;;;;11.14;72.77;102918.38;5033695;28;20029;-63
2023/05/26 05:33:20;;;;;;;32.55;5.85;;;;;;;11.15;71.75;102913.97;5015663;28;20144;-63
2023/05/26 05:35:46;;;;;;;29.85;5.28;;;;;;;11.23;71.23;102917.84;5033618;28;20038;-63
2023/05/26 05:38:12;;;;;;;33.42;5.93;;;;;;;11.32;71.78;102917.31;5033280;28;20025;-63
2023/05/26 05:40:38;;;;;;;26.90;5.13;;;;;;;11.41;70.98;102921.22;5033345;28;20121;-62
2023/05/26 05:43:03;;;;;;;29.02;5.15;;;;;;;11.53;70.80;102927.03;5033222;28;20026;-63
2023/05/26 05:45:29;;;;;;;24.73;5.13;;;;;;;11.67;70.31;102924.91;5033066;28;20087;-63
2023/05/26 05:47:54;;;;;;;25.55;5.20;;;;;;;11.82;69.64;102926.34;5015489;28;20032;-63
2023/05/26 05:50:20;;;;;;;23.75;4.65;;;;;;;11.96;68.76;102925.19;5015446;28;20037;-64
2023/05/26 05:52:45;;;;;;;23.92;5.05;;;;;;;12.08;67.78;102922.13;5033309;28;20091;-62
2023/05/26 05:55:11;;;;;;;28.25;5.90;;;;;;;12.17;67.37;102927.75;5015191;28;20471;-63
2023/05/26 05:57:36;;;;;;;24.52;5.40;;;;;;;12.14;66.51;102931.19;5032670;28;20057;-62
2023/05/26 06:00:04;;;;;;;30.73;5.97;;;;;;;12.23;67.01;102931.53;5033002;28;20033;-63
2023/05/26 06:02:29;;;;;;;32.92;6.00;;;;;;;12.34;67.29;102939.00;4999139;28;20425;-63
2023/05/26 06:04:55;;;;;;;26.15;5.10;;;;;;;12.37;66.90;102950.59;5033046;28;20021;-63
2023/05/26 06:07:20;;;;;;;23.30;5.10;;;;;;;12.43;66.40;102934.03;5033412;28;20022;-62
2023/05/26 06:09:45;;;;;;;23.50;5.00;;;;;;;12.63;65.50;102946.22;5015078;28;20038;-62
2023/05/26 06:12:11;;;;;;;23.60;5.40;;;;;;;12.84;65.34;102951.41;5033180;28;20307;-62
2023/05/26 06:14:38;;;;;;;25.83;5.03;;;;;;;12.99;64.53;102953.72;5015581;28;20037;-63
2023/05/26 06:17:03;;;;;;;27.88;5.45;;;;;;;13.08;63.51;102955.78;5032763;28;20499;-63
2023/05/26 06:19:29;;;;;;;27.52;5.40;;;;;;;13.13;63.06;102956.84;5035944;28;20029;-63
2023/05/26 06:21:54;;;;;;;31.08;5.60;;;;;;;13.20;63.00;102957.09;5036892;28;20026;-63
2023/05/26 06:24:20;;;;;;;26.55;5.65;;;;;;;13.26;62.99;102961.72;5036766;28;20018;-62
2023/05/26 06:26:45;;;;;;;28.25;5.32;;;;;;;13.31;62.70;102967.19;5036704;28;20025;-63
2023/05/26 06:29:11;;;;;;;26.73;5.70;;;;;;;13.38;62.31;102966.56;5036463;28;20021;-63
2023/05/26 06:31:36;;;;;;;25.48;5.35;;;;;;;13.57;62.28;102957.44;5036600;28;20033;-63
2023/05/26 06:34:02;;;;;;;24.77;5.00;;;;;;;13.84;61.71;102950.34;5019088;28;20026;-63
2023/05/26 06:36:27;;;;;;;25.50;4.97;;;;;;;13.92;60.50;102940.84;5036522;28;20041;-63
2023/05/26 06:38:53;;;;;;;25.95;4.53;;;;;;;13.92;60.42;102948.84;5036873;28;20116;-62
2023/05/26 06:41:18;;;;;;;25.40;5.47;;;;;;;13.93;60.41;102945.31;5036476;28;20033;-63
2023/05/26 06:43:43;;;;;;;25.00;5.05;;;;;;;14.04;60.60;102949.19;5036706;28;20021;-63
2023/05/26 06:46:10;;;;;;;35.53;6.53;;;;;;;14.23;59.85;102947.09;5036623;28;20032;-63
2023/05/26 06:48:36;;;;;;;33.00;6.03;;;;;;;14.23;58.99;102947.97;5036270;28;20025;-63
2023/05/26 06:51:01;;;;;;;26.90;5.45;;;;;;;14.31;58.86;102944.66;5036527;28;20178;-62
2023/05/26 06:53:26;;;;;;;23.65;5.18;;;;;;;14.26;59.22;102948.09;5036302;28;20029;-63
2023/05/26 06:55:52;;;;;;;23.85;5.63;;;;;;;14.25;58.45;102950.69;5036181;28;20040;-63
2023/05/26 06:58:17;;;;;;;26.38;5.22;;;;;;;14.42;58.38;102952.06;5035845;28;20056;-63
2023/05/26 07:00:59;;;;;;;24.17;5.35;;;;;;;14.58;57.95;102949.88;5036193;28;20037;-63
2023/05/26 07:03:26;;;;;;;26.73;5.82;;;;;;;14.70;56.54;102953.78;5036267;28;20053;-63
2023/05/26 07:05:52;;;;;;;25.83;5.50;;;;;;;14.80;56.05;102954.94;5018345;28;20033;-63
2023/05/26 07:08:18;;;;;;;24.60;5.10;;;;;;;15.05;55.50;102961.81;5036145;28;20037;-63
2023/05/26 07:10:43;;;;;;;24.23;4.95;;;;;;;15.21;54.92;102957.78;5035973;28;20068;-63
2023/05/26 07:13:08;;;;;;;22.58;5.53;;;;;;;15.20;54.59;102956.91;5035710;28;20025;-62
2023/05/26 07:15:34;;;;;;;24.60;5.45;;;;;;;15.49;54.58;102954.03;5035911;28;20036;-63
2023/05/26 07:17:59;;;;;;;32.60;5.40;;;;;;;15.65;53.79;102958.00;5035751;28;20048;-63
2023/05/26 07:20:24;;;;;;;27.30;5.30;;;;;;;15.73;52.53;102964.44;5035727;28;20037;-63
2023/05/26 07:22:50;;;;;;;28.67;4.95;;;;;;;15.89;53.45;102963.91;5001720;28;20121;-63
2023/05/26 07:25:15;;;;;;;20.38;4.63;;;;;;;16.11;52.96;102951.97;5035604;28;20396;-63
2023/05/26 07:27:41;;;;;;;23.38;5.07;;;;;;;16.31;51.81;102960.38;5035512;28;20030;-63
2023/05/26 07:30:07;;;;;;;23.30;5.10;;;;;;;16.52;50.09;102955.47;5035139;28;20395;-63
2023/05/26 07:32:33;;;;;;;20.88;4.95;;;;;;;16.68;50.37;102963.78;5035797;28;20120;-63
2023/05/26 07:34:58;;;;;;;26.42;5.50;;;;;;;16.77;49.53;102964.88;5035802;28;20113;-63
2023/05/26 07:37:24;;;;;;;26.02;5.75;;;;;;;16.98;49.80;102966.16;5035707;28;20379;-63
2023/05/26 07:39:49;;;;;;;23.35;5.22;;;;;;;17.16;48.55;102963.81;5017991;28;20036;-62
2023/05/26 07:42:14;;;;;;;23.17;5.18;;;;;;;17.08;48.47;102959.22;5035385;28;20025;-63
2023/05/26 07:44:40;;;;;;;17.20;4.60;;;;;;;17.03;48.57;102968.03;5035374;28;20546;-63
2023/05/26 07:47:05;;;;;;;21.63;5.15;;;;;;;17.14;47.57;102962.91;5035467;28;20032;-62
2023/05/26 07:49:31;;;;;;;24.38;5.40;;;;;;;17.35;47.93;102959.69;5017628;28;20026;-63
2023/05/26 07:51:56;;;;;;;29.52;5.70;;;;;;;17.65;47.22;102953.94;5035159;28;20364;-63
2023/05/26 07:54:21;;;;;;;25.83;5.60;;;;;;;17.72;46.78;102953.13;5035071;28;20112;-62
2023/05/26 07:56:47;;;;;;;24.33;5.57;;;;;;;18.00;46.09;102951.81;5034921;28;20048;-63
2023/05/26 07:59:12;;;;;;;20.00;4.97;;;;;;;18.13;46.41;102958.22;5017310;28;20498;-63
2023/05/26 08:01:38;;;;;;;21.73;5.00;;;;;;;18.37;45.11;102952.28;5035047;28;20479;-63
2023/05/26 08:04:03;;;;;;;15.90;4.85;;;;;;;18.45;44.25;102961.28;5035075;28;20053;-63
2023/05/26 08:06:28;;;;;;;15.65;4.40;;;;;;;18.48;44.13;102957.75;5034969;28;20541;-63
2023/05/26 08:08:54;;;;;;;20.92;4.80;;;;;;;18.51;43.39;102958.69;5034883;28;20021;-63
2023/05/26 08:11:21;;;;;;;23.40;5.60;;;;;;;18.45;43.64;102966.63;5034931;28;20025;-63
2023/05/26 08:13:47;;;;;;;19.40;4.90;;;;;;;18.41;43.71;102961.22;5034957;28;20037;-63
2023/05/26 08:16:12;;;;;;;23.77;5.35;;;;;;;18.45;44.57;102966.63;5034816;28;20479;-63
2023/05/26 08:18:38;;;;;;;17.52;4.78;;;;;;;18.53;43.86;102966.72;5034741;28;20537;-63
2023/05/26 08:21:03;;;;;;;20.17;4.88;;;;;;;18.72;43.37;102965.22;5016915;28;20025;-63
2023/05/26 08:23:28;;;;;;;19.63;4.93;;;;;;;18.80;42.79;102955.47;5034558;28;20032;-63
2023/05/26 08:25:54;;;;;;;20.30;5.63;;;;;;;18.89;42.87;102957.34;5034481;28;20036;-61
2023/05/26 08:28:19;;;;;;;20.45;5.55;;;;;;;19.04;42.14;102956.59;5034499;28;20470;-60
2023/05/26 08:30:45;;;;;;;19.77;5.03;;;;;;;19.17;42.29;102943.31;5016746;28;20036;-63
2023/05/26 08:33:10;;;;;;;20.27;4.72;;;;;;;19.57;41.33;102950.75;5034644;28;20099;-63
2023/05/26 08:35:36;;;;;;;21.08;5.00;;;;;;;19.66;41.92;102943.75;5016646;28;20033;-63
2023/05/26 08:38:01;;;;;;;18.92;4.95;;;;;;;19.82;40.96;102941.13;5016689;28;20038;-63
2023/05/26 08:40:26;;;;;;;25.05;5.53;;;;;;;20.10;40.63;102944.88;5033695;28;20096;-63
2023/05/26 08:42:56;;;;;;;21.70;5.07;;;;;;;20.12;41.68;102943.06;5034009;28;20471;-63
2023/05/26 08:45:22;;;;;;;22.33;5.45;;;;;;;20.25;40.69;102939.53;5016932;28;20080;-63
2023/05/26 08:47:48;;;;;;;21.90;5.20;;;;;;;20.33;39.87;102939.59;5016404;28;20037;-64
2023/05/26 08:50:16;;;;;;;22.17;5.78;;;;;;;20.39;38.11;102943.19;5034069;28;20053;-63
2023/05/26 08:52:43;;;;;;;22.67;5.60;;;;;;;20.53;38.67;102945.06;5034142;28;20040;-64
2023/05/26 08:55:08;;;;;;;18.92;4.68;;;;;;;20.60;38.32;102949.53;5034326;28;20021;-63
2023/05/26 08:57:34;;;;;;;17.45;5.00;;;;;;;20.70;38.66;102944.22;5033758;28;20402;-64
2023/05/26 09:00:03;;;;;;;20.33;5.22;;;;;;;20.87;38.29;102941.56;5034187;28;20406;-63
2023/05/26 09:02:29;;;;;;;21.20;4.63;;;;;;;21.09;36.88;102937.09;5033950;28;20109;-63
2023/05/26 09:04:54;;;;;;;20.80;5.43;;;;;;;21.10;38.22;102941.56;5033888;28;20386;-63
2023/05/26 09:07:20;;;;;;;18.77;4.90;;;;;;;21.08;37.37;102943.38;5033849;28;20079;-63
2023/05/26 09:09:46;;;;;;;20.80;4.88;;;;;;;21.03;37.95;102947.84;5033670;28;20026;-63
2023/05/26 09:12:12;;;;;;;15.13;5.55;;;;;;;20.98;37.04;102933.50;5033727;28;20079;-66
2023/05/26 09:14:38;;;;;;;19.95;4.78;;;;;;;20.81;37.48;102938.84;5033744;28;20113;-63
2023/05/26 09:17:04;;;;;;;15.77;5.10;;;;;;;21.02;36.54;102948.72;5015924;28;20386;-63
2023/05/26 09:19:31;;;;;;;19.95;4.82;;;;;;;21.38;34.90;102944.31;5033562;28;20108;-63
2023/05/26 09:22:05;;;;;;;19.05;4.80;;;;;;;21.36;34.74;102946.09;5033534;28;20037;-63
2023/05/26 09:24:43;;;;;;;17.85;4.88;;;;;;;21.37;36.41;102945.19;5033413;28;20029;-63
2023/05/26 09:27:16;;;;;;;16.90;5.38;;;;;;;21.57;35.64;102950.56;5033654;28;20109;-63
2023/05/26 09:30:00;;;;;;;17.60;4.82;;;;;;;21.77;36.53;102943.34;5033331;28;20025;-63
2023/05/26 09:32:27;;;;;;;23.83;5.47;;;;;;;21.86;34.41;102948.69;5033449;28;20033;-61
2023/05/26 09:34:59;;;;;;;16.52;4.72;;;;;;;22.15;33.84;102945.06;5033171;28;20065;-61
2023/05/26 09:37:29;;;;;;;15.98;5.10;;;;;;;22.05;33.15;102948.63;5033500;28;20037;-60
2023/05/26 09:40:17;;;;;;;17.95;5.40;;;;;;;22.09;34.23;102951.31;5033365;28;20029;-61
2023/05/26 09:42:51;;;;;;;17.83;5.10;;;;;;;22.02;34.26;102948.66;5033193;28;20084;-60
2023/05/26 09:45:16;;;;;;;18.42;5.10;;;;;;;22.19;32.71;102936.97;5015427;28;20037;-61
2023/05/26 09:47:42;;;;;;;16.48;4.88;;;;;;;22.30;32.95;102941.38;5033259;28;20071;-61
2023/05/26 09:50:07;;;;;;;18.42;4.75;;;;;;;22.38;31.55;102948.53;5015303;28;20479;-61
2023/05/26 09:52:34;;;;;;;16.98;4.97;;;;;;;22.63;32.73;102945.72;5032925;28;20033;-61
2023/05/26 09:54:59;;;;;;;18.08;5.15;;;;;;;22.87;32.47;102939.25;5032890;28;20025;-61
2023/05/26 09:57:27;;;;;;;16.85;4.75;;;;;;;23.21;31.37;102939.91;5032607;28;20046;-61
2023/05/26 09:59:55;;;;;;;17.52;4.85;;;;;;;23.20;31.25;102936.31;5032771;28;20439;-61
2023/05/26 10:02:23;;;;;;;17.98;5.03;;;;;;;23.35;30.77;102940.72;5033178;28;20379;-61
2023/05/26 10:04:49;;;;;;;19.45;5.13;;;;;;;23.45;30.89;102928.00;5032981;28;20064;-62
2023/05/26 10:07:20;;;;;;;15.98;4.80;;;;;;;23.71;31.34;102930.47;5015204;28;20065;-61
2023/05/26 10:09:55;;;;;;;18.20;5.10;;;;;;;23.90;31.65;102926.66;5032737;28;20522;-61
2023/05/26 10:12:28;;;;;;;16.13;5.05;;;;;;;23.88;30.43;102933.88;5032933;28;20029;-61
2023/05/26 10:14:54;;;;;;;23.05;5.20;;;;;;;23.72;29.79;102930.47;5032976;28;20489;-61
2023/05/26 10:17:21;;;;;;;18.90;5.10;;;;;;;23.76;30.73;102930.44;5015234;28;20523;-62
2023/05/26 10:19:47;;;;;;;18.45;5.30;;;;;;;23.81;31.38;102921.38;5032887;28;20076;-63
2023/05/26 10:22:23;;;;;;;23.20;5.78;;;;;;;24.25;30.79;102917.22;5032953;28;20041;-63
2023/05/26 10:25:02;;;;;;;16.55;5.38;;;;;;;24.19;29.86;102929.00;5032849;28;20497;-64
2023/05/26 10:27:44;;;;;;;15.82;4.72;;;;;;;24.15;30.20;102919.16;5033414;28;20021;-64
2023/05/26 10:30:15;;;;;;;19.35;5.25;;;;;;;24.24;29.55;102918.16;5032782;28;20110;-60
2023/05/26 10:32:48;;;;;;;18.50;5.13;;;;;;;24.30;29.21;102915.34;5032980;28;20160;-61
2023/05/26 10:35:21;;;;;;;18.60;5.10;;;;;;;24.19;28.73;102918.19;5032709;28;20025;-61
2023/05/26 10:38:02;;;;;;;17.67;5.10;;;;;;;24.52;29.39;102915.97;5032602;28;20029;-61
2023/05/26 10:40:37;;;;;;;18.48;5.25;;;;;;;24.37;29.13;102913.47;5032560;28;20033;-61
2023/05/26 10:43:17;;;;;;;16.40;5.32;;;;;;;24.42;29.50;102912.53;5032963;28;20374;-61
2023/05/26 10:45:59;;;;;;;18.85;5.75;;;;;;;24.86;28.85;102912.75;5032715;28;20037;-61
2023/05/26 10:48:25;;;;;;;;;;;;;;;25.34;27.55;102908.34;5033214;28;20045;-61
2023/05/26 10:50:59;;;;;;;20.80;4.78;;;;;;;25.07;27.97;102911.50;5032530;28;20358;-61
2023/05/26 10:53:30;;;;;;;17.60;4.90;;;;;;;24.98;27.87;102907.16;5032589;28;20029;-61
2023/05/26 10:55:56;;;;;;;19.85;5.00;;;;;;;25.17;28.59;102903.22;5014717;28;20029;-62
2023/05/26 10:58:45;;;;;;;16.38;4.20;;;;;;;24.99;26.04;102906.22;5032113;28;20077;-62
2023/05/26 11:01:12;;;;;;;16.55;4.95;;;;;;;24.75;26.32;102904.81;5032363;28;20350;-61
2023/05/26 11:03:55;;;;;;;13.20;4.50;;;;;;;24.60;26.33;102905.94;5032389;28;20025;-60
2023/05/26 11:06:46;;;;;;;14.63;4.60;;;;;;;24.84;27.68;102901.06;5018378;28;20026;-61
2023/05/26 11:09:13;;;;;;;15.93;4.50;;;;;;;24.99;25.34;102900.81;5035917;28;20017;-60
2023/05/26 11:11:55;;;;;;;15.57;4.93;;;;;;;24.92;26.52;102893.72;5036106;28;20033;-60
2023/05/26 11:14:29;;;;;;;18.10;4.97;;;;;;;24.78;26.74;102902.06;5036058;28;20459;-60
2023/05/26 11:17:00;;;;;;;18.73;5.00;;;;;;;24.97;26.81;102900.84;5035937;28;20538;-61
2023/05/26 11:19:32;;;;;;;13.80;4.28;;;;;;;25.40;26.53;102896.53;5035746;28;20108;-61